sensor_id;sensor_type;location;lat;lon;timestamp;temperature;humidity
2409;DHT22;8463;48.094;7.970;2022-07-29T00:00:39;20.60;44.00
2409;DHT22;8463;48.094;7.970;2022-07-29T00:03:05;20.70;44.00
2409;DHT22;8463;48.094;7.970;2022-07-29T00:05:31;20.60;43.90
2409;DHT22;8463;48.094;7.970;2022-07-29T00:07:56;20.60;43.90
2409;DHT22;8463;48.094;7.970;2022-07-29T00:10:22;20.50;43.90
2409;DHT22;8463;48.094;7.970;2022-07-29T00:12:47;20.50;44.70
2409;DHT22;8463;48.094;7.970;2022-07-29T00:15:13;20.50;43.80
2409;DHT22;8463;48.094;7.970;2022-07-29T00:17:39;20.40;44.50
2409;DHT22;8463;48.094;7.970;2022-07-29T00:20:05;20.40;45.10
2409;DHT22;8463;48.094;7.970;2022-07-29T00:22:31;20.40;45.20
2409;DHT22;8463;48.094;7.970;2022-07-29T00:24:57;20.30;44.60
2409;DHT22;8463;48.094;7.970;2022-07-29T00:27:22;20.30;45.00
2409;DHT22;8463;48.094;7.970;2022-07-29T00:29:48;20.30;44.90
2409;DHT22;8463;48.094;7.970;2022-07-29T00:32:14;20.40;44.70
2409;DHT22;8463;48.094;7.970;2022-07-29T00:34:39;20.40;43.80
2409;DHT22;8463;48.094;7.970;2022-07-29T00:37:23;20.50;43.80
2409;DHT22;8463;48.094;7.970;2022-07-29T00:39:49;20.40;43.70
2409;DHT22;8463;48.094;7.970;2022-07-29T00:42:15;20.30;45.10
2409;DHT22;8463;48.094;7.970;2022-07-29T00:44:42;20.20;44.60
2409;DHT22;8463;48.094;7.970;2022-07-29T00:47:09;20.20;45.20
2409;DHT22;8463;48.094;7.970;2022-07-29T00:49:35;20.20;45.70
2409;DHT22;8463;48.094;7.970;2022-07-29T00:52:03;20.10;45.90
2409;DHT22;8463;48.094;7.970;2022-07-29T00:54:29;20.10;45.80
2409;DHT22;8463;48.094;7.970;2022-07-29T00:56:58;20.10;45.40
2409;DHT22;8463;48.094;7.970;2022-07-29T00:59:23;20.00;46.00
2409;DHT22;8463;48.094;7.970;2022-07-29T01:01:49;19.90;47.10
2409;DHT22;8463;48.094;7.970;2022-07-29T01:04:14;19.90;46.90
2409;DHT22;8463;48.094;7.970;2022-07-29T01:06:41;19.90;46.90
2409;DHT22;8463;48.094;7.970;2022-07-29T01:09:07;20.00;45.90
2409;DHT22;8463;48.094;7.970;2022-07-29T01:11:34;19.90;46.70
2409;DHT22;8463;48.094;7.970;2022-07-29T01:14:00;19.90;46.60
2409;DHT22;8463;48.094;7.970;2022-07-29T01:16:32;19.80;47.40
2409;DHT22;8463;48.094;7.970;2022-07-29T01:19:07;19.80;46.20
2409;DHT22;8463;48.094;7.970;2022-07-29T01:21:53;19.80;46.70
2409;DHT22;8463;48.094;7.970;2022-07-29T01:24:48;19.80;46.90
2409;DHT22;8463;48.094;7.970;2022-07-29T01:27:41;19.80;47.10
2409;DHT22;8463;48.094;7.970;2022-07-29T01:30:10;19.70;47.00
2409;DHT22;8463;48.094;7.970;2022-07-29T01:32:37;19.70;47.70
2409;DHT22;8463;48.094;7.970;2022-07-29T01:35:05;19.70;47.40
2409;DHT22;8463;48.094;7.970;2022-07-29T01:37:45;19.70;47.90
2409;DHT22;8463;48.094;7.970;2022-07-29T01:40:19;19.70;47.70
2409;DHT22;8463;48.094;7.970;2022-07-29T01:42:51;19.70;47.70
2409;DHT22;8463;48.094;7.970;2022-07-29T01:45:27;19.70;47.20
2409;DHT22;8463;48.094;7.970;2022-07-29T01:48:05;19.60;47.20
2409;DHT22;8463;48.094;7.970;2022-07-29T01:50:40;19.50;47.90
2409;DHT22;8463;48.094;7.970;2022-07-29T01:53:10;19.50;47.70
2409;DHT22;8463;48.094;7.970;2022-07-29T01:55:41;19.50;47.90
2409;DHT22;8463;48.094;7.970;2022-07-29T01:58:08;19.50;47.90
2409;DHT22;8463;48.094;7.970;2022-07-29T02:00:36;19.40;48.30
2409;DHT22;8463;48.094;7.970;2022-07-29T02:03:07;19.40;48.40
2409;DHT22;8463;48.094;7.970;2022-07-29T02:05:35;19.50;48.10
2409;DHT22;8463;48.094;7.970;2022-07-29T02:08:02;19.50;47.80
2409;DHT22;8463;48.094;7.970;2022-07-29T02:10:30;19.50;47.50
2409;DHT22;8463;48.094;7.970;2022-07-29T02:12:58;19.50;47.50
2409;DHT22;8463;48.094;7.970;2022-07-29T02:15:27;19.50;47.30
2409;DHT22;8463;48.094;7.970;2022-07-29T02:18:10;19.50;47.20
2409;DHT22;8463;48.094;7.970;2022-07-29T02:20:37;19.60;46.70
2409;DHT22;8463;48.094;7.970;2022-07-29T02:23:04;19.60;47.00
2409;DHT22;8463;48.094;7.970;2022-07-29T02:25:31;19.50;46.70
2409;DHT22;8463;48.094;7.970;2022-07-29T02:27:58;19.60;47.60
2409;DHT22;8463;48.094;7.970;2022-07-29T02:30:26;19.40;47.50
2409;DHT22;8463;48.094;7.970;2022-07-29T02:32:53;19.40;47.90
2409;DHT22;8463;48.094;7.970;2022-07-29T02:35:21;19.40;47.70
2409;DHT22;8463;48.094;7.970;2022-07-29T02:37:47;19.30;47.70
2409;DHT22;8463;48.094;7.970;2022-07-29T02:40:35;19.30;47.80
2409;DHT22;8463;48.094;7.970;2022-07-29T02:43:05;19.30;48.10
2409;DHT22;8463;48.094;7.970;2022-07-29T02:45:32;19.30;47.60
2409;DHT22;8463;48.094;7.970;2022-07-29T02:48:00;19.30;47.30
2409;DHT22;8463;48.094;7.970;2022-07-29T02:50:33;19.30;47.30
2409;DHT22;8463;48.094;7.970;2022-07-29T02:53:16;19.40;47.30
2409;DHT22;8463;48.094;7.970;2022-07-29T02:55:56;19.40;46.80
2409;DHT22;8463;48.094;7.970;2022-07-29T02:58:33;19.40;46.70
2409;DHT22;8463;48.094;7.970;2022-07-29T03:01:11;19.40;47.30
2409;DHT22;8463;48.094;7.970;2022-07-29T03:03:39;19.40;46.40
2409;DHT22;8463;48.094;7.970;2022-07-29T03:06:06;19.40;46.40
2409;DHT22;8463;48.094;7.970;2022-07-29T03:08:33;19.40;46.90
2409;DHT22;8463;48.094;7.970;2022-07-29T03:11:00;19.40;46.10
2409;DHT22;8463;48.094;7.970;2022-07-29T03:13:27;19.40;46.20
2409;DHT22;8463;48.094;7.970;2022-07-29T03:15:55;19.30;46.40
2409;DHT22;8463;48.094;7.970;2022-07-29T03:18:23;19.30;47.30
2409;DHT22;8463;48.094;7.970;2022-07-29T03:20:49;19.30;46.50
2409;DHT22;8463;48.094;7.970;2022-07-29T03:23:22;19.30;46.10
2409;DHT22;8463;48.094;7.970;2022-07-29T03:25:50;19.20;46.90
2409;DHT22;8463;48.094;7.970;2022-07-29T03:28:15;19.00;48.80
2409;DHT22;8463;48.094;7.970;2022-07-29T03:30:41;18.90;47.50
2409;DHT22;8463;48.094;7.970;2022-07-29T03:33:07;18.80;48.20
2409;DHT22;8463;48.094;7.970;2022-07-29T03:35:32;18.80;48.90
2409;DHT22;8463;48.094;7.970;2022-07-29T03:37:58;18.70;48.50
2409;DHT22;8463;48.094;7.970;2022-07-29T03:40:38;18.70;49.20
2409;DHT22;8463;48.094;7.970;2022-07-29T03:43:05;18.80;48.50
2409;DHT22;8463;48.094;7.970;2022-07-29T03:45:34;18.90;47.90
2409;DHT22;8463;48.094;7.970;2022-07-29T03:48:05;18.80;48.00
2409;DHT22;8463;48.094;7.970;2022-07-29T03:50:33;18.70;48.10
2409;DHT22;8463;48.094;7.970;2022-07-29T03:53:00;18.70;49.00
2409;DHT22;8463;48.094;7.970;2022-07-29T03:55:28;18.80;48.40
2409;DHT22;8463;48.094;7.970;2022-07-29T03:57:55;18.80;47.70
2409;DHT22;8463;48.094;7.970;2022-07-29T04:00:22;18.70;48.30
2409;DHT22;8463;48.094;7.970;2022-07-29T04:02:48;18.70;48.00
2409;DHT22;8463;48.094;7.970;2022-07-29T04:05:15;18.60;48.40
2409;DHT22;8463;48.094;7.970;2022-07-29T04:07:44;18.50;48.60
2409;DHT22;8463;48.094;7.970;2022-07-29T04:10:10;18.40;49.40
2409;DHT22;8463;48.094;7.970;2022-07-29T04:12:45;18.40;49.80
2409;DHT22;8463;48.094;7.970;2022-07-29T04:15:11;18.40;50.10
2409;DHT22;8463;48.094;7.970;2022-07-29T04:17:36;18.40;49.50
2409;DHT22;8463;48.094;7.970;2022-07-29T04:20:03;18.40;50.20
2409;DHT22;8463;48.094;7.970;2022-07-29T04:22:29;18.50;49.70
2409;DHT22;8463;48.094;7.970;2022-07-29T04:24:55;18.50;49.00
2409;DHT22;8463;48.094;7.970;2022-07-29T04:27:21;18.50;49.10
2409;DHT22;8463;48.094;7.970;2022-07-29T04:29:47;18.30;50.90
2409;DHT22;8463;48.094;7.970;2022-07-29T04:32:12;18.30;50.90
2409;DHT22;8463;48.094;7.970;2022-07-29T04:34:38;18.30;50.90
2409;DHT22;8463;48.094;7.970;2022-07-29T04:37:03;18.30;50.90
2409;DHT22;8463;48.094;7.970;2022-07-29T04:39:29;18.50;50.70
2409;DHT22;8463;48.094;7.970;2022-07-29T04:41:55;18.50;49.30
2409;DHT22;8463;48.094;7.970;2022-07-29T04:44:21;18.50;49.30
2409;DHT22;8463;48.094;7.970;2022-07-29T04:46:47;18.40;50.10
2409;DHT22;8463;48.094;7.970;2022-07-29T04:49:12;18.40;50.20
2409;DHT22;8463;48.094;7.970;2022-07-29T04:51:38;18.40;50.90
2409;DHT22;8463;48.094;7.970;2022-07-29T04:54:04;18.50;52.90
2409;DHT22;8463;48.094;7.970;2022-07-29T04:56:30;18.90;51.40
2409;DHT22;8463;48.094;7.970;2022-07-29T04:58:55;19.30;47.90
2409;DHT22;8463;48.094;7.970;2022-07-29T05:01:21;19.70;45.40
2409;DHT22;8463;48.094;7.970;2022-07-29T05:03:47;20.00;43.40
2409;DHT22;8463;48.094;7.970;2022-07-29T05:06:12;20.10;42.20
2409;DHT22;8463;48.094;7.970;2022-07-29T05:08:38;20.30;40.60
2409;DHT22;8463;48.094;7.970;2022-07-29T05:11:04;20.40;40.10
2409;DHT22;8463;48.094;7.970;2022-07-29T05:13:29;20.50;39.30
2409;DHT22;8463;48.094;7.970;2022-07-29T05:15:55;20.60;38.90
2409;DHT22;8463;48.094;7.970;2022-07-29T05:18:21;20.70;38.60
2409;DHT22;8463;48.094;7.970;2022-07-29T05:20:47;20.80;38.10
2409;DHT22;8463;48.094;7.970;2022-07-29T05:23:12;20.80;37.50
2409;DHT22;8463;48.094;7.970;2022-07-29T05:25:38;20.90;37.50
2409;DHT22;8463;48.094;7.970;2022-07-29T05:28:07;20.90;37.20
2409;DHT22;8463;48.094;7.970;2022-07-29T05:30:32;20.90;37.20
2409;DHT22;8463;48.094;7.970;2022-07-29T05:32:58;20.90;36.70
2409;DHT22;8463;48.094;7.970;2022-07-29T05:35:24;20.90;36.40
2409;DHT22;8463;48.094;7.970;2022-07-29T05:37:49;20.90;37.00
2409;DHT22;8463;48.094;7.970;2022-07-29T05:40:15;20.90;36.50
2409;DHT22;8463;48.094;7.970;2022-07-29T05:42:41;20.90;36.80
2409;DHT22;8463;48.094;7.970;2022-07-29T05:45:07;20.90;37.00
2409;DHT22;8463;48.094;7.970;2022-07-29T05:47:33;20.90;36.70
2409;DHT22;8463;48.094;7.970;2022-07-29T05:49:59;21.00;36.50
2409;DHT22;8463;48.094;7.970;2022-07-29T05:52:25;21.00;36.70
2409;DHT22;8463;48.094;7.970;2022-07-29T05:54:50;21.00;37.50
2409;DHT22;8463;48.094;7.970;2022-07-29T05:57:18;21.10;36.70
2409;DHT22;8463;48.094;7.970;2022-07-29T05:59:44;21.20;36.70
2409;DHT22;8463;48.094;7.970;2022-07-29T06:02:10;21.20;36.00
2409;DHT22;8463;48.094;7.970;2022-07-29T06:04:36;21.30;35.30
2409;DHT22;8463;48.094;7.970;2022-07-29T06:07:02;21.30;35.20
2409;DHT22;8463;48.094;7.970;2022-07-29T06:09:28;21.20;35.90
2409;DHT22;8463;48.094;7.970;2022-07-29T06:11:54;21.20;36.00
2409;DHT22;8463;48.094;7.970;2022-07-29T06:14:20;21.20;35.90
2409;DHT22;8463;48.094;7.970;2022-07-29T06:16:45;21.20;36.00
2409;DHT22;8463;48.094;7.970;2022-07-29T06:19:11;21.30;35.70
2409;DHT22;8463;48.094;7.970;2022-07-29T06:21:44;21.40;36.00
2409;DHT22;8463;48.094;7.970;2022-07-29T06:24:11;21.50;36.10
2409;DHT22;8463;48.094;7.970;2022-07-29T06:26:38;21.50;35.40
2409;DHT22;8463;48.094;7.970;2022-07-29T06:29:04;21.70;35.60
2409;DHT22;8463;48.094;7.970;2022-07-29T06:31:33;21.90;34.30
2409;DHT22;8463;48.094;7.970;2022-07-29T06:33:59;22.10;33.40
2409;DHT22;8463;48.094;7.970;2022-07-29T06:36:25;22.30;33.10
2409;DHT22;8463;48.094;7.970;2022-07-29T06:38:50;22.40;32.50
2409;DHT22;8463;48.094;7.970;2022-07-29T06:41:16;22.50;32.00
2409;DHT22;8463;48.094;7.970;2022-07-29T06:43:43;22.60;31.60
2409;DHT22;8463;48.094;7.970;2022-07-29T06:46:14;22.70;31.10
2409;DHT22;8463;48.094;7.970;2022-07-29T06:48:41;22.80;30.50
2409;DHT22;8463;48.094;7.970;2022-07-29T06:51:10;22.90;30.70
2409;DHT22;8463;48.094;7.970;2022-07-29T06:53:39;22.80;31.70
2409;DHT22;8463;48.094;7.970;2022-07-29T06:56:06;22.50;32.60
2409;DHT22;8463;48.094;7.970;2022-07-29T06:58:34;22.50;33.10
2409;DHT22;8463;48.094;7.970;2022-07-29T07:01:04;22.40;33.40
2409;DHT22;8463;48.094;7.970;2022-07-29T07:03:31;22.30;33.40
2409;DHT22;8463;48.094;7.970;2022-07-29T07:05:57;22.40;33.80
2409;DHT22;8463;48.094;7.970;2022-07-29T07:08:26;22.50;33.70
2409;DHT22;8463;48.094;7.970;2022-07-29T07:10:52;22.80;33.30
2409;DHT22;8463;48.094;7.970;2022-07-29T07:13:19;22.90;31.90
2409;DHT22;8463;48.094;7.970;2022-07-29T07:15:45;22.80;30.80
2409;DHT22;8463;48.094;7.970;2022-07-29T07:18:13;22.90;31.20
2409;DHT22;8463;48.094;7.970;2022-07-29T07:20:38;22.90;31.90
2409;DHT22;8463;48.094;7.970;2022-07-29T07:23:04;22.90;31.80
2409;DHT22;8463;48.094;7.970;2022-07-29T07:25:30;22.80;31.10
2409;DHT22;8463;48.094;7.970;2022-07-29T07:27:56;22.60;30.80
2409;DHT22;8463;48.094;7.970;2022-07-29T07:30:22;22.70;31.20
2409;DHT22;8463;48.094;7.970;2022-07-29T07:32:48;22.70;30.90
2409;DHT22;8463;48.094;7.970;2022-07-29T07:35:14;22.70;29.50
2409;DHT22;8463;48.094;7.970;2022-07-29T07:37:39;22.50;33.70
2409;DHT22;8463;48.094;7.970;2022-07-29T07:40:10;22.40;34.70
2409;DHT22;8463;48.094;7.970;2022-07-29T07:42:37;22.60;34.60
2409;DHT22;8463;48.094;7.970;2022-07-29T07:45:03;22.60;32.40
2409;DHT22;8463;48.094;7.970;2022-07-29T07:47:30;22.70;32.50
2409;DHT22;8463;48.094;7.970;2022-07-29T07:49:55;22.70;29.70
2409;DHT22;8463;48.094;7.970;2022-07-29T07:52:22;22.60;29.80
2409;DHT22;8463;48.094;7.970;2022-07-29T07:54:48;22.40;30.60
2409;DHT22;8463;48.094;7.970;2022-07-29T07:57:14;22.40;29.00
2409;DHT22;8463;48.094;7.970;2022-07-29T07:59:40;22.40;28.60
2409;DHT22;8463;48.094;7.970;2022-07-29T08:02:07;22.40;28.20
2409;DHT22;8463;48.094;7.970;2022-07-29T08:04:32;22.40;27.40
2409;DHT22;8463;48.094;7.970;2022-07-29T08:06:59;22.40;27.40
2409;DHT22;8463;48.094;7.970;2022-07-29T08:09:26;22.40;27.40
2409;DHT22;8463;48.094;7.970;2022-07-29T08:11:52;22.40;28.00
2409;DHT22;8463;48.094;7.970;2022-07-29T08:14:18;22.50;26.30
2409;DHT22;8463;48.094;7.970;2022-07-29T08:16:44;22.60;26.60
2409;DHT22;8463;48.094;7.970;2022-07-29T08:19:10;22.70;25.90
2409;DHT22;8463;48.094;7.970;2022-07-29T08:21:36;22.80;26.90
2409;DHT22;8463;48.094;7.970;2022-07-29T08:24:01;23.00;25.50
2409;DHT22;8463;48.094;7.970;2022-07-29T08:26:46;23.10;25.00
2409;DHT22;8463;48.094;7.970;2022-07-29T08:29:12;23.20;24.60
2409;DHT22;8463;48.094;7.970;2022-07-29T08:31:38;23.20;23.70
2409;DHT22;8463;48.094;7.970;2022-07-29T08:34:05;23.20;23.60
2409;DHT22;8463;48.094;7.970;2022-07-29T08:36:31;23.20;23.90
2409;DHT22;8463;48.094;7.970;2022-07-29T08:38:58;23.30;24.30
2409;DHT22;8463;48.094;7.970;2022-07-29T08:41:23;23.50;23.40
2409;DHT22;8463;48.094;7.970;2022-07-29T08:43:50;23.60;21.50
2409;DHT22;8463;48.094;7.970;2022-07-29T08:46:17;23.60;21.90
2409;DHT22;8463;48.094;7.970;2022-07-29T08:48:43;23.70;22.00
2409;DHT22;8463;48.094;7.970;2022-07-29T08:51:17;23.80;23.20
2409;DHT22;8463;48.094;7.970;2022-07-29T08:53:45;24.00;22.00
2409;DHT22;8463;48.094;7.970;2022-07-29T08:56:14;24.00;20.90
2409;DHT22;8463;48.094;7.970;2022-07-29T08:58:40;23.90;20.40
2409;DHT22;8463;48.094;7.970;2022-07-29T09:01:07;23.80;20.50
2409;DHT22;8463;48.094;7.970;2022-07-29T09:03:36;23.90;20.80
2409;DHT22;8463;48.094;7.970;2022-07-29T09:06:03;23.90;20.80
2409;DHT22;8463;48.094;7.970;2022-07-29T09:08:31;23.80;19.70
2409;DHT22;8463;48.094;7.970;2022-07-29T09:10:57;23.90;20.00
2409;DHT22;8463;48.094;7.970;2022-07-29T09:13:23;23.90;20.40
2409;DHT22;8463;48.094;7.970;2022-07-29T09:15:50;23.90;19.80
2409;DHT22;8463;48.094;7.970;2022-07-29T09:18:35;23.80;19.50
2409;DHT22;8463;48.094;7.970;2022-07-29T09:21:02;23.90;19.50
2409;DHT22;8463;48.094;7.970;2022-07-29T09:24:11;24.00;19.40
2409;DHT22;8463;48.094;7.970;2022-07-29T09:26:41;24.00;18.80
2409;DHT22;8463;48.094;7.970;2022-07-29T09:29:10;23.90;19.10
2409;DHT22;8463;48.094;7.970;2022-07-29T09:31:39;23.80;19.40
2409;DHT22;8463;48.094;7.970;2022-07-29T09:34:06;23.90;20.00
2409;DHT22;8463;48.094;7.970;2022-07-29T09:36:46;23.90;19.60
2409;DHT22;8463;48.094;7.970;2022-07-29T09:39:13;23.90;20.00
2409;DHT22;8463;48.094;7.970;2022-07-29T09:41:53;23.80;20.20
2409;DHT22;8463;48.094;7.970;2022-07-29T09:44:19;23.90;20.40
2409;DHT22;8463;48.094;7.970;2022-07-29T09:47:11;23.80;19.90
2409;DHT22;8463;48.094;7.970;2022-07-29T09:49:57;23.90;20.30
2409;DHT22;8463;48.094;7.970;2022-07-29T09:52:25;23.90;19.20
2409;DHT22;8463;48.094;7.970;2022-07-29T09:54:52;23.90;20.20
2409;DHT22;8463;48.094;7.970;2022-07-29T09:57:28;23.90;20.30
2409;DHT22;8463;48.094;7.970;2022-07-29T10:00:04;23.90;20.00
2409;DHT22;8463;48.094;7.970;2022-07-29T10:02:33;23.90;20.30
2409;DHT22;8463;48.094;7.970;2022-07-29T10:05:00;23.90;20.60
2409;DHT22;8463;48.094;7.970;2022-07-29T10:07:27;24.00;20.20
2409;DHT22;8463;48.094;7.970;2022-07-29T10:10:08;24.20;20.00
2409;DHT22;8463;48.094;7.970;2022-07-29T10:12:33;24.20;20.10
2409;DHT22;8463;48.094;7.970;2022-07-29T10:15:01;24.40;20.00
2409;DHT22;8463;48.094;7.970;2022-07-29T10:17:27;24.40;19.90
2409;DHT22;8463;48.094;7.970;2022-07-29T10:19:53;24.50;20.00
2409;DHT22;8463;48.094;7.970;2022-07-29T10:22:19;24.70;19.30
2409;DHT22;8463;48.094;7.970;2022-07-29T10:24:45;24.80;18.50
2409;DHT22;8463;48.094;7.970;2022-07-29T10:27:11;24.60;18.40
2409;DHT22;8463;48.094;7.970;2022-07-29T10:29:37;24.70;19.30
2409;DHT22;8463;48.094;7.970;2022-07-29T10:35:12;25.10;17.60
2409;DHT22;8463;48.094;7.970;2022-07-29T10:43:46;25.00;16.00
2409;DHT22;8463;48.094;7.970;2022-07-29T10:46:13;25.00;14.50
2409;DHT22;8463;48.094;7.970;2022-07-29T10:49:17;25.00;14.70
2409;DHT22;8463;48.094;7.970;2022-07-29T10:54:40;25.00;15.10
2409;DHT22;8463;48.094;7.970;2022-07-29T10:57:14;25.10;17.00
2409;DHT22;8463;48.094;7.970;2022-07-29T10:59:41;25.30;14.70
2409;DHT22;8463;48.094;7.970;2022-07-29T11:05:06;25.10;13.70
2409;DHT22;8463;48.094;7.970;2022-07-29T11:07:34;25.30;15.10
2409;DHT22;8463;48.094;7.970;2022-07-29T11:15:10;25.60;12.80
2409;DHT22;8463;48.094;7.970;2022-07-29T11:23:30;25.50;12.90
2409;DHT22;8463;48.094;7.970;2022-07-29T11:29:02;25.60;12.50
2409;DHT22;8463;48.094;7.970;2022-07-29T11:31:43;25.60;10.70
2409;DHT22;8463;48.094;7.970;2022-07-29T11:39:36;25.70;8.80
2409;DHT22;8463;48.094;7.970;2022-07-29T11:45:08;25.60;8.90
2409;DHT22;8463;48.094;7.970;2022-07-29T11:47:46;25.70;8.50
2409;DHT22;8463;48.094;7.970;2022-07-29T11:50:18;25.70;5.80
2409;DHT22;8463;48.094;7.970;2022-07-29T11:52:51;25.80;5.90
2409;DHT22;8463;48.094;7.970;2022-07-29T11:55:19;25.80;7.10
2409;DHT22;8463;48.094;7.970;2022-07-29T11:57:56;25.80;7.30
2409;DHT22;8463;48.094;7.970;2022-07-29T12:00:25;25.70;6.70
2409;DHT22;8463;48.094;7.970;2022-07-29T12:02:51;25.90;6.50
2409;DHT22;8463;48.094;7.970;2022-07-29T12:05:18;25.90;5.90
2409;DHT22;8463;48.094;7.970;2022-07-29T12:07:44;25.90;5.80
2409;DHT22;8463;48.094;7.970;2022-07-29T12:10:09;25.80;4.70
2409;DHT22;8463;48.094;7.970;2022-07-29T12:12:35;25.80;4.90
2409;DHT22;8463;48.094;7.970;2022-07-29T12:15:15;25.60;3.20
2409;DHT22;8463;48.094;7.970;2022-07-29T12:17:42;25.60;5.80
2409;DHT22;8463;48.094;7.970;2022-07-29T12:20:08;25.60;5.80
2409;DHT22;8463;48.094;7.970;2022-07-29T12:22:39;25.70;6.30
2409;DHT22;8463;48.094;7.970;2022-07-29T12:25:07;25.70;4.90
2409;DHT22;8463;48.094;7.970;2022-07-29T12:27:33;25.60;5.80
2409;DHT22;8463;48.094;7.970;2022-07-29T12:30:06;25.60;5.80
2409;DHT22;8463;48.094;7.970;2022-07-29T12:35:14;25.70;8.00
2409;DHT22;8463;48.094;7.970;2022-07-29T12:37:42;25.70;7.40
2409;DHT22;8463;48.094;7.970;2022-07-29T12:40:09;25.80;9.80
2409;DHT22;8463;48.094;7.970;2022-07-29T12:42:35;25.70;7.80
2409;DHT22;8463;48.094;7.970;2022-07-29T12:45:01;25.60;7.60
2409;DHT22;8463;48.094;7.970;2022-07-29T12:47:28;25.60;7.50
2409;DHT22;8463;48.094;7.970;2022-07-29T12:50:13;25.50;9.10
2409;DHT22;8463;48.094;7.970;2022-07-29T12:52:44;25.40;9.70
2409;DHT22;8463;48.094;7.970;2022-07-29T12:55:10;25.40;9.20
2409;DHT22;8463;48.094;7.970;2022-07-29T12:57:49;25.40;9.70
2409;DHT22;8463;48.094;7.970;2022-07-29T13:00:22;25.40;9.80
2409;DHT22;8463;48.094;7.970;2022-07-29T13:02:55;25.50;9.80
2409;DHT22;8463;48.094;7.970;2022-07-29T13:05:21;25.50;9.80
2409;DHT22;8463;48.094;7.970;2022-07-29T13:07:47;25.60;9.90
2409;DHT22;8463;48.094;7.970;2022-07-29T13:10:20;25.50;9.80
2409;DHT22;8463;48.094;7.970;2022-07-29T13:13:14;25.40;10.00
2409;DHT22;8463;48.094;7.970;2022-07-29T13:15:45;25.40;11.10
2409;DHT22;8463;48.094;7.970;2022-07-29T13:18:33;25.50;11.20
2409;DHT22;8463;48.094;7.970;2022-07-29T13:21:11;25.50;10.50
2409;DHT22;8463;48.094;7.970;2022-07-29T13:23:37;25.40;11.10
2409;DHT22;8463;48.094;7.970;2022-07-29T13:26:10;25.50;10.80
2409;DHT22;8463;48.094;7.970;2022-07-29T13:28:41;25.60;10.90
2409;DHT22;8463;48.094;7.970;2022-07-29T13:31:07;25.60;9.90
2409;DHT22;8463;48.094;7.970;2022-07-29T13:33:33;25.70;11.30
2409;DHT22;8463;48.094;7.970;2022-07-29T13:35:58;25.70;10.30
2409;DHT22;8463;48.094;7.970;2022-07-29T13:38:24;25.60;10.50
2409;DHT22;8463;48.094;7.970;2022-07-29T13:40:50;25.50;9.90
2409;DHT22;8463;48.094;7.970;2022-07-29T13:43:16;25.60;10.90
2409;DHT22;8463;48.094;7.970;2022-07-29T13:45:41;25.50;9.80
2409;DHT22;8463;48.094;7.970;2022-07-29T13:48:07;25.60;10.70
2409;DHT22;8463;48.094;7.970;2022-07-29T13:50:33;25.80;10.70
2409;DHT22;8463;48.094;7.970;2022-07-29T13:52:58;25.80;10.00
2409;DHT22;8463;48.094;7.970;2022-07-29T13:55:24;25.90;10.30
2409;DHT22;8463;48.094;7.970;2022-07-29T13:57:50;25.80;10.00
2409;DHT22;8463;48.094;7.970;2022-07-29T14:00:16;25.80;10.00
2409;DHT22;8463;48.094;7.970;2022-07-29T14:02:42;25.70;8.60
2409;DHT22;8463;48.094;7.970;2022-07-29T14:05:08;25.60;8.40
2409;DHT22;8463;48.094;7.970;2022-07-29T14:07:35;25.60;8.90
2409;DHT22;8463;48.094;7.970;2022-07-29T14:10:02;25.50;9.60
2409;DHT22;8463;48.094;7.970;2022-07-29T14:12:27;25.50;9.30
2409;DHT22;8463;48.094;7.970;2022-07-29T14:14:53;25.50;8.00
2409;DHT22;8463;48.094;7.970;2022-07-29T14:17:19;25.50;8.30
2409;DHT22;8463;48.094;7.970;2022-07-29T14:19:44;25.50;7.90
2409;DHT22;8463;48.094;7.970;2022-07-29T14:22:10;25.40;8.10
2409;DHT22;8463;48.094;7.970;2022-07-29T14:24:36;25.30;8.00
2409;DHT22;8463;48.094;7.970;2022-07-29T14:27:02;25.30;7.90
2409;DHT22;8463;48.094;7.970;2022-07-29T14:29:28;25.20;8.20
2409;DHT22;8463;48.094;7.970;2022-07-29T14:31:53;25.30;8.00
2409;DHT22;8463;48.094;7.970;2022-07-29T14:34:19;25.40;8.80
2409;DHT22;8463;48.094;7.970;2022-07-29T14:36:45;25.20;9.10
2409;DHT22;8463;48.094;7.970;2022-07-29T14:39:11;25.10;9.70
2409;DHT22;8463;48.094;7.970;2022-07-29T14:41:36;25.10;10.90
2409;DHT22;8463;48.094;7.970;2022-07-29T14:44:03;25.00;11.30
2409;DHT22;8463;48.094;7.970;2022-07-29T14:46:29;25.10;11.70
2409;DHT22;8463;48.094;7.970;2022-07-29T14:48:55;25.10;10.10
2409;DHT22;8463;48.094;7.970;2022-07-29T14:51:20;25.10;10.30
2409;DHT22;8463;48.094;7.970;2022-07-29T14:53:46;25.00;9.60
2409;DHT22;8463;48.094;7.970;2022-07-29T14:56:12;25.00;10.00
2409;DHT22;8463;48.094;7.970;2022-07-29T14:58:37;25.00;9.60
2409;DHT22;8463;48.094;7.970;2022-07-29T15:01:03;25.10;9.30
2409;DHT22;8463;48.094;7.970;2022-07-29T15:03:29;25.00;7.60
2409;DHT22;8463;48.094;7.970;2022-07-29T15:05:55;25.10;7.80
2409;DHT22;8463;48.094;7.970;2022-07-29T15:08:21;25.10;7.30
2409;DHT22;8463;48.094;7.970;2022-07-29T15:10:46;25.20;6.80
2409;DHT22;8463;48.094;7.970;2022-07-29T15:13:12;25.20;6.30
2409;DHT22;8463;48.094;7.970;2022-07-29T15:15:38;25.30;6.50
2409;DHT22;8463;48.094;7.970;2022-07-29T15:18:04;25.40;6.50
2409;DHT22;8463;48.094;7.970;2022-07-29T15:20:30;25.50;5.90
2409;DHT22;8463;48.094;7.970;2022-07-29T15:22:56;25.50;5.30
2409;DHT22;8463;48.094;7.970;2022-07-29T15:25:22;25.50;5.30
2409;DHT22;8463;48.094;7.970;2022-07-29T15:27:48;25.50;5.30
2409;DHT22;8463;48.094;7.970;2022-07-29T15:30:14;25.50;4.80
2409;DHT22;8463;48.094;7.970;2022-07-29T15:32:42;25.50;4.80
2409;DHT22;8463;48.094;7.970;2022-07-29T15:35:08;25.40;4.00
2409;DHT22;8463;48.094;7.970;2022-07-29T15:37:39;25.40;4.00
2409;DHT22;8463;48.094;7.970;2022-07-29T15:40:06;25.40;3.80
2409;DHT22;8463;48.094;7.970;2022-07-29T15:42:32;25.50;3.90
2409;DHT22;8463;48.094;7.970;2022-07-29T15:45:00;25.50;3.10
2409;DHT22;8463;48.094;7.970;2022-07-29T15:47:28;25.60;2.20
2409;DHT22;8463;48.094;7.970;2022-07-29T15:49:54;25.60;1.60
2409;DHT22;8463;48.094;7.970;2022-07-29T15:52:20;25.60;1.60
2409;DHT22;8463;48.094;7.970;2022-07-29T15:54:46;25.80;1.70
2409;DHT22;8463;48.094;7.970;2022-07-29T15:57:12;25.90;1.00
2409;DHT22;8463;48.094;7.970;2022-07-29T15:59:37;25.90;1.00
2409;DHT22;8463;48.094;7.970;2022-07-29T16:02:04;25.90;1.00
2409;DHT22;8463;48.094;7.970;2022-07-29T16:04:30;26.00;1.80
2409;DHT22;8463;48.094;7.970;2022-07-29T16:06:56;26.10;1.00
2409;DHT22;8463;48.094;7.970;2022-07-29T16:09:22;26.10;1.00
2409;DHT22;8463;48.094;7.970;2022-07-29T16:11:48;26.20;1.00
2409;DHT22;8463;48.094;7.970;2022-07-29T16:14:16;26.40;1.00
2409;DHT22;8463;48.094;7.970;2022-07-29T16:16:42;26.40;1.00
2409;DHT22;8463;48.094;7.970;2022-07-29T16:19:08;26.40;1.00
2409;DHT22;8463;48.094;7.970;2022-07-29T16:21:35;26.40;1.00
2409;DHT22;8463;48.094;7.970;2022-07-29T16:24:01;26.30;1.00
2409;DHT22;8463;48.094;7.970;2022-07-29T16:26:27;26.20;1.00
2409;DHT22;8463;48.094;7.970;2022-07-29T16:28:53;26.10;1.00
2409;DHT22;8463;48.094;7.970;2022-07-29T16:31:19;26.10;1.00
2409;DHT22;8463;48.094;7.970;2022-07-29T16:33:48;26.00;1.00
2409;DHT22;8463;48.094;7.970;2022-07-29T16:36:13;26.10;1.00
2409;DHT22;8463;48.094;7.970;2022-07-29T16:38:39;26.20;1.00
2409;DHT22;8463;48.094;7.970;2022-07-29T16:41:06;26.30;1.00
2409;DHT22;8463;48.094;7.970;2022-07-29T16:43:32;26.30;1.00
2409;DHT22;8463;48.094;7.970;2022-07-29T16:45:57;26.40;1.00
2409;DHT22;8463;48.094;7.970;2022-07-29T16:48:23;26.50;1.00
2409;DHT22;8463;48.094;7.970;2022-07-29T16:50:49;26.50;1.00